Faucett, MO (64448)

2:06 PM CST on January 19, 2017 (GMT -0600)
Horn Heights | | Change Station

Elev 951 ft 39.74 °N, 94.84 °W | Updated 2 seconds ago

Overcast
Overcast
47.3 °F
Feels Like 47 °F
N
0.0
Wind Variable Wind from North
Gusts 3.0 mph

Today
High -- | Low -- °F
--% Chance of Precip.
Yesterday
High -- | Low -- °F
Precip. -- in
Pressure 29.70 in
Visibility 9.0 miles
Clouds Overcast 700 ft
Windchill 47 °F
Dew Point 45 °F
Humidity 92%
Rainfall 0.00 in
Snow Depth Not available.
7:36 AM 5:24 PM
Waning Gibbous, 51% visible
METAR KSTJ 191953Z 16004KT 9SM OVC007 09/08 A2969 RMK AO2 SLP056 T00890078
Pressure 29.70 in
Visibility 9.0 miles
Clouds Overcast 700 ft
Windchill 47 °F
Dew Point 45 °F
Humidity 92%
Rainfall 0.00 in
Snow Depth Not available.
7:36 AM 5:24 PM
Waning Gibbous, 51% visible
METAR KSTJ 191953Z 16004KT 9SM OVC007 09/08 A2969 RMK AO2 SLP056 T00890078

Get Your Daily Forecast Email!

Thanks for signing up!

Be on the lookout for a verification email in your inbox.

You'll start receiving the daily forecast at 8 AM.

×

10-Day Weather Forecast

Almanac

Astronomy

Jan. 19, 2017 Rise Set
Actual Time
Civil Twilight
Nautical Twilight
Astronomical Twilight
Moon
Length of Visible Light
Length of Day
Tomorrow will be .
, % of the Moon is Illuminated

Today's Extremes

State Highs State Lows

Community

WunderPhotos

Upload Photos

1,962,540 photos uploaded!

WunderBlog® & News

Nearby

Air Quality

  Air Quality AQ Index Pollutant
Not available.

Snow Depth

Station Depth Elevation

Earthquake Activity

City Distance Mag. Time & Date
Minimum magnitude displayed is 2.5.

Coastal Water Temperatures

Place Temperature

Stations

Nearby Weather Stations

Station Location Temp. Windchill Dew Point Humidity Wind Precip. Elev Updated Type
                   

Watches & Warnings

There are currently no watches in effect.